Impacts TAF Board INFO
FOR SITUATIONAL AWARENESS. NOT TO BE USED FOR FLIGHT PLANNING PURPOSES.
IDs:

KIAD - Washington/Dulles In, VA, US

Issued at 2329 UTC 23 Jan 2018
Updated at 0157 UTC 24 Jan 2018
Potential Impact None Slight Moderate High
Time<<25/02Z 25/03Z 25/04Z 25/05Z 25/06Z 25/07Z 25/08Z 25/09Z 25/10Z 25/11Z 25/12Z 25/13Z 25/14Z
Type PRVL PRVL PRVL PRVL
VIS >6 >6 >6 >6
CIG -- -- -- --
Cover SCT SCT SCT SCT
FltCat VFR VFR VFR VFR
WX -- -- -- --
WDir 320 320 320 320
WSpd 8 8 8 8
WGst -- -- -- --

Raw TAF
KIAD 232329Z 2400/2506 28010G18KT P6SM FEW050
  FM240200 27008KT P6SM FEW050
  FM241100 31012G21KT P6SM SCT050
  FM242300 32008KT P6SM SCT050


METAR Board
Radar Display
Forecast Discussion

FOR SITUATIONAL AWARENESS. NOT TO BE USED FOR FLIGHT PLANNING PURPOSES.